createdAt,value
2022-08-16T00:00:58.773Z,50.84
2022-08-16T00:06:05.972Z,51.07
2022-08-16T00:11:15.705Z,51.35
2022-08-16T00:17:05.689Z,51.57
2022-08-16T00:21:28.947Z,51.78
2022-08-16T00:26:44.935Z,52.04
2022-08-16T00:31:59.577Z,52.21
2022-08-16T00:36:49.390Z,52.28
2022-08-16T00:41:56.601Z,52.38
2022-08-16T00:47:06.466Z,52.38
2022-08-16T00:52:29.980Z,52.41
2022-08-16T00:57:18.341Z,52.53
2022-08-16T01:02:31.544Z,52.63
2022-08-16T01:07:50.697Z,52.63
2022-08-16T01:12:40.044Z,52.73
2022-08-16T01:17:47.272Z,52.73
2022-08-16T01:22:57.487Z,52.78
2022-08-16T01:28:04.816Z,52.83
2022-08-16T01:33:14.989Z,52.90
2022-08-16T01:38:20.017Z,52.79
2022-08-16T01:43:26.943Z,52.73
2022-08-16T01:48:34.152Z,52.64
2022-08-16T01:53:41.966Z,52.61
2022-08-16T01:58:48.650Z,52.66
2022-08-16T02:03:58.138Z,52.64
2022-08-16T02:09:05.331Z,52.64
2022-08-16T02:14:18.471Z,52.67
2022-08-16T02:19:17.826Z,52.70
2022-08-16T02:24:31.588Z,52.64
2022-08-16T02:29:32.315Z,52.64
2022-08-16T02:34:40.745Z,52.61
2022-08-16T02:39:46.833Z,52.64
2022-08-16T02:44:53.969Z,52.64
2022-08-16T02:50:54.451Z,52.60
2022-08-16T02:55:08.279Z,52.53
2022-08-16T03:00:32.110Z,52.53
2022-08-16T03:05:22.620Z,52.44
2022-08-16T03:10:33.439Z,52.38
2022-08-16T03:15:36.913Z,52.39
2022-08-16T03:20:44.099Z,52.34
2022-08-16T03:25:51.285Z,52.33
2022-08-16T03:30:58.443Z,52.32
2022-08-16T03:36:31.031Z,52.25
2022-08-16T03:41:24.347Z,52.24
2022-08-16T03:46:44.329Z,52.19
2022-08-16T03:51:27.209Z,52.14
2022-08-16T03:56:34.396Z,52.06
2022-08-16T04:01:41.724Z,52.08
2022-08-16T04:06:48.845Z,52.11
2022-08-16T04:11:56.102Z,52.12
2022-08-16T04:17:03.322Z,52.10
2022-08-16T04:22:10.535Z,52.04
2022-08-16T04:27:17.730Z,52.05
2022-08-16T04:32:24.908Z,51.99
2022-08-16T04:37:32.172Z,51.90
2022-08-16T04:42:39.410Z,51.90
2022-08-16T04:47:46.545Z,51.87
2022-08-16T04:52:55.739Z,51.84
2022-08-16T04:58:00.883Z,51.82
2022-08-16T05:03:08.421Z,51.77
2022-08-16T05:08:29.022Z,51.70
2022-08-16T05:13:22.834Z,51.67
2022-08-16T05:18:30.060Z,51.62
2022-08-16T05:23:37.250Z,51.54
2022-08-16T05:28:44.540Z,51.60
2022-08-16T05:33:53.618Z,51.51
2022-08-16T05:38:59.829Z,51.52
2022-08-16T05:44:22.613Z,51.54
2022-08-16T05:49:14.612Z,51.43
2022-08-16T05:54:24.958Z,51.44
2022-08-16T05:59:30.693Z,51.45
2022-08-16T06:04:37.990Z,51.42
2022-08-16T06:09:45.246Z,51.39
2022-08-16T06:14:52.434Z,51.42
2022-08-16T06:19:59.697Z,51.45
2022-08-16T06:25:06.985Z,51.39
2022-08-16T06:30:19.808Z,51.41
2022-08-16T06:35:21.545Z,51.42
2022-08-16T06:40:33.499Z,51.52
2022-08-16T06:45:35.971Z,51.53
2022-08-16T06:50:43.199Z,51.58
2022-08-16T06:55:53.813Z,51.58
2022-08-16T07:00:58.113Z,51.45
2022-08-16T07:06:04.770Z,51.38
2022-08-16T07:11:11.945Z,51.25
2022-08-16T07:16:20.477Z,51.34
2022-08-16T07:21:26.365Z,51.28
2022-08-16T07:26:33.553Z,51.35
2022-08-16T07:31:40.800Z,51.35
2022-08-16T07:36:57.778Z,51.16
2022-08-16T07:41:55.288Z,51.13
2022-08-16T07:47:02.441Z,51.02
2022-08-16T07:52:18.924Z,50.92
2022-08-16T07:57:18.903Z,50.87
2022-08-16T08:02:23.982Z,50.79
2022-08-16T08:07:32.506Z,50.78
2022-08-16T08:12:38.458Z,50.86
2022-08-16T08:17:45.669Z,50.88
2022-08-16T08:22:52.838Z,50.97
2022-08-16T08:28:00.070Z,50.90
2022-08-16T08:33:07.578Z,50.80
2022-08-16T08:38:14.475Z,50.84
2022-08-16T08:43:21.753Z,51.00
2022-08-16T08:48:32.766Z,50.01
2022-08-16T08:53:36.261Z,50.23
2022-08-16T08:58:54.678Z,49.55
2022-08-16T09:03:50.830Z,49.26
2022-08-16T09:08:58.207Z,48.90
2022-08-16T09:14:05.433Z,48.93
2022-08-16T09:19:12.753Z,48.59
2022-08-16T09:24:46.883Z,49.00
2022-08-16T09:29:44.978Z,48.80
2022-08-16T09:34:34.627Z,48.10
2022-08-16T09:39:43.388Z,48.78
2022-08-16T09:45:09.668Z,49.26
2022-08-16T09:49:56.403Z,49.62
2022-08-16T09:55:03.578Z,50.49
2022-08-16T10:00:42.163Z,50.42
2022-08-16T10:05:18.021Z,50.36
2022-08-16T10:10:30.975Z,50.43
2022-08-16T10:15:32.424Z,50.28
2022-08-16T10:20:39.672Z,49.97
2022-08-16T10:27:18.290Z,49.57
2022-08-16T10:30:56.647Z,49.67
2022-08-16T10:36:03.926Z,49.52
2022-08-16T10:41:08.513Z,49.77
2022-08-16T10:46:40.149Z,50.06
2022-08-16T10:51:34.238Z,50.09
2022-08-16T10:56:55.254Z,50.39
2022-08-16T11:01:40.114Z,50.55
2022-08-16T11:07:06.549Z,50.13
2022-08-16T11:12:14.460Z,49.42
2022-08-16T11:17:02.933Z,49.13
2022-08-16T11:22:22.901Z,49.74
2022-08-16T11:27:20.582Z,49.71
2022-08-16T11:32:29.819Z,49.60
2022-08-16T11:38:04.626Z,49.65
2022-08-16T11:42:37.731Z,49.78
2022-08-16T11:47:43.804Z,49.83
2022-08-16T11:52:51.159Z,50.03
2022-08-16T11:57:58.364Z,50.59
2022-08-16T12:03:05.597Z,50.56
2022-08-16T12:08:12.830Z,50.71
2022-08-16T12:13:20.064Z,50.65
2022-08-16T12:18:27.359Z,50.48
2022-08-16T12:23:34.627Z,50.27
2022-08-16T12:28:54.719Z,50.08
2022-08-16T12:33:49.283Z,49.84
2022-08-16T12:38:56.532Z,49.34
2022-08-16T12:44:03.712Z,49.26
2022-08-16T12:49:10.912Z,48.31
2022-08-16T12:54:18.162Z,48.06
2022-08-16T12:59:25.441Z,47.47
2022-08-16T13:04:33.392Z,47.01
2022-08-16T13:09:42.295Z,45.57
2022-08-16T13:14:47.111Z,44.14
2022-08-16T13:20:11.181Z,44.69
2022-08-16T13:25:02.266Z,45.27
2022-08-16T13:30:22.157Z,45.20
2022-08-16T13:35:16.681Z,44.74
2022-08-16T13:40:23.944Z,44.40
2022-08-16T13:45:33.165Z,44.42
2022-08-16T13:50:51.843Z,44.25
2022-08-16T13:55:58.813Z,44.27
2022-08-16T14:00:56.693Z,43.51
2022-08-16T14:06:03.874Z,43.69
2022-08-16T14:11:11.742Z,43.40
2022-08-16T14:16:24.272Z,43.88
2022-08-16T14:21:25.487Z,43.09
2022-08-16T14:26:32.910Z,43.78
2022-08-16T14:31:40.926Z,43.52
2022-08-16T14:36:47.303Z,42.19
2022-08-16T14:41:55.872Z,42.73
2022-08-16T14:47:01.721Z,41.44
2022-08-16T14:52:09.316Z,41.25
2022-08-16T14:57:16.560Z,41.67
2022-08-16T15:02:33.897Z,41.54
2022-08-16T15:07:35.034Z,41.92
2022-08-16T15:12:38.167Z,41.92
2022-08-16T15:17:53.804Z,40.99
2022-08-16T15:22:52.541Z,41.03
2022-08-16T15:27:59.900Z,41.08
2022-08-16T15:33:07.126Z,40.85
2022-08-16T15:38:55.323Z,41.20
2022-08-16T15:43:21.904Z,41.03
2022-08-16T15:48:29.383Z,40.70
2022-08-16T15:53:37.666Z,40.91
2022-08-16T15:58:43.542Z,41.05
2022-08-16T16:03:50.710Z,41.12
2022-08-16T16:08:57.923Z,40.81
2022-08-16T16:14:06.235Z,40.82
2022-08-16T16:19:12.369Z,41.26
2022-08-16T16:24:21.380Z,40.93
2022-08-16T16:29:27.277Z,41.39
2022-08-16T16:34:35.440Z,41.39
2022-08-16T16:39:41.705Z,41.35
2022-08-16T16:44:50.892Z,41.54
2022-08-16T16:49:56.096Z,41.70
2022-08-16T16:55:03.398Z,41.86
2022-08-16T17:00:25.946Z,42.02
2022-08-16T17:05:17.934Z,42.12
2022-08-16T17:10:45.933Z,42.19
2022-08-16T17:15:36.344Z,42.33
2022-08-16T17:20:40.217Z,42.51
2022-08-16T17:25:52.228Z,42.43
2022-08-16T17:30:54.608Z,42.45
2022-08-16T17:36:01.802Z,42.53
2022-08-16T17:41:09.031Z,42.52
2022-08-16T17:46:50.668Z,42.41
2022-08-16T17:51:23.365Z,42.43
2022-08-16T17:56:30.623Z,42.54
2022-08-16T18:01:37.934Z,42.60
2022-08-16T18:06:45.028Z,42.32
2022-08-16T18:11:54.869Z,42.41
2022-08-16T18:16:59.481Z,42.32
2022-08-16T18:22:06.691Z,42.68
2022-08-16T18:27:25.965Z,42.66
2022-08-16T18:32:24.444Z,43.41
2022-08-16T18:37:28.473Z,44.99
2022-08-16T18:42:35.705Z,44.67
2022-08-16T18:47:42.901Z,44.76
2022-08-16T18:52:50.324Z,45.04
2022-08-16T18:57:57.300Z,45.56
2022-08-16T19:03:04.605Z,45.62
2022-08-16T19:08:11.886Z,46.06
2022-08-16T19:13:19.125Z,45.67
2022-08-16T19:18:26.440Z,46.14
2022-08-16T19:23:33.692Z,46.29
2022-08-16T19:28:51.138Z,46.06
2022-08-16T19:33:54.145Z,46.23
2022-08-16T19:38:56.045Z,46.95
2022-08-16T19:44:03.327Z,48.05
2022-08-16T19:49:15.831Z,47.20
2022-08-16T19:54:18.615Z,47.14
2022-08-16T19:59:39.947Z,47.39
2022-08-16T20:04:33.945Z,47.55
2022-08-16T20:09:42.999Z,47.75
2022-08-16T20:14:50.376Z,47.26
2022-08-16T20:19:57.686Z,46.46
2022-08-16T20:25:04.937Z,46.20
2022-08-16T20:30:12.163Z,46.60
2022-08-16T20:35:19.441Z,46.67
2022-08-16T20:40:34.801Z,46.99
2022-08-16T20:45:34.021Z,46.45
2022-08-16T20:50:41.252Z,46.85
2022-08-16T20:55:48.428Z,46.82
2022-08-16T21:00:55.662Z,46.52
2022-08-16T21:06:02.798Z,46.53
2022-08-16T21:11:09.984Z,46.54
2022-08-16T21:16:17.190Z,46.49
2022-08-16T21:21:24.401Z,46.41
2022-08-16T21:26:31.599Z,46.73
2022-08-16T21:31:38.799Z,46.56
2022-08-16T21:36:45.961Z,46.59
2022-08-16T21:41:53.152Z,46.45
2022-08-16T21:47:00.457Z,46.51
2022-08-16T21:52:07.636Z,46.46
2022-08-16T21:57:14.829Z,46.64
2022-08-16T22:02:22.063Z,46.30
2022-08-16T22:07:29.386Z,46.07
2022-08-16T22:12:36.508Z,45.91
2022-08-16T22:17:43.880Z,45.87
2022-08-16T22:22:51.275Z,45.88
2022-08-16T22:27:58.156Z,45.84
2022-08-16T22:33:05.434Z,45.87
2022-08-16T22:38:53.456Z,46.03
2022-08-16T22:43:19.800Z,46.04
2022-08-16T22:48:26.963Z,46.12
2022-08-16T22:53:34.195Z,46.28
2022-08-16T22:58:41.490Z,46.36
2022-08-16T23:03:48.701Z,46.48
2022-08-16T23:08:55.944Z,46.34
2022-08-16T23:14:03.388Z,46.27
2022-08-16T23:19:10.617Z,46.52
2022-08-16T23:24:17.812Z,46.43
2022-08-16T23:29:26.565Z,46.56
2022-08-16T23:34:32.201Z,46.92
2022-08-16T23:39:39.517Z,47.53
2022-08-16T23:44:58.092Z,47.44
2022-08-16T23:50:00.527Z,47.72
2022-08-16T23:55:01.041Z,47.89
